Time;durP1;ratioP1;P1;durP2;ratioP2;P2;SDS_P1;SDS_P2;PMS_P1;PMS_P2;Temp;Humidity;BMP_temperature;BMP_pressure;BME280_temperature;BME280_humidity;BME280_pressure;Samples;Min_cycle;Max_cycle;Signal;HPM_P1;HPM_P2
2023/06/25 00:01:11;;;;;;;;;;;;;;;26.41;59.77;101193.25;5003583;28;20124;-85
2023/06/25 00:03:36;;;;;;;7.72;5.97;;;;;;;26.37;59.39;101188.84;5013796;28;19913;-84
2023/06/25 00:06:02;;;;;;;7.53;6.43;;;;;;;26.35;59.67;101177.22;5012436;28;20100;-84
2023/06/25 00:08:27;;;;;;;;;;;;;;;26.39;59.58;101170.06;5010267;28;20025;-84
2023/06/25 00:10:53;;;;;;;6.70;5.88;;;;;;;26.36;59.42;101172.75;5006038;28;20382;-84
2023/06/25 00:13:18;;;;;;;;;;;;;;;26.39;59.76;101172.72;5002417;28;20518;-84
2023/06/25 00:15:44;;;;;;;6.97;5.88;;;;;;;26.33;59.51;101181.72;5010205;28;19917;-84
2023/06/25 00:18:09;;;;;;;;;;;;;;;26.38;59.75;101187.03;5016265;28;20072;-84
2023/06/25 00:20:35;;;;;;;7.10;5.97;;;;;;;26.33;59.69;101178.09;5018824;28;19943;-84
2023/06/25 00:23:00;;;;;;;8.73;6.10;;;;;;;26.32;59.81;101174.56;5008887;28;20488;-84
2023/06/25 00:25:26;;;;;;;6.78;5.72;;;;;;;26.29;59.80;101177.25;5016492;28;20030;-82
2023/06/25 00:27:52;;;;;;;;;;;;;;;26.36;59.61;101188.81;5010247;28;20018;-84
2023/06/25 00:30:17;;;;;;;6.88;6.18;;;;;;;26.24;59.49;101175.47;5007156;28;20306;-84
2023/06/25 00:32:44;;;;;;;6.85;5.78;;;;;;;26.28;59.64;101191.53;5003817;28;20125;-84
2023/06/25 00:35:11;;;;;;;6.63;5.85;;;;;;;26.23;59.79;101177.28;5015273;28;20242;-83
2023/06/25 00:37:38;;;;;;;7.05;6.07;;;;;;;26.25;59.47;101185.31;5013928;28;20030;-84
2023/06/25 00:40:05;;;;;;;7.20;6.13;;;;;;;26.22;59.45;101171.94;4996938;28;20027;-85
2023/06/25 00:42:41;;;;;;;7.95;5.90;;;;;;;26.27;59.54;101184.41;5010561;28;20452;-84
2023/06/25 00:45:11;;;;;;;6.90;5.82;;;;;;;26.20;59.67;101164.81;5011127;28;20048;-84
2023/06/25 00:47:38;;;;;;;7.30;6.03;;;;;;;26.28;59.51;101182.59;5005369;28;20496;-84
2023/06/25 00:50:05;;;;;;;7.13;6.40;;;;;;;26.23;59.55;101176.41;5008303;28;20698;-83
2023/06/25 00:52:31;;;;;;;6.43;5.63;;;;;;;26.26;59.49;101176.38;5015707;28;20038;-84
2023/06/25 00:54:56;;;;;;;;;;;;;;;26.27;59.40;101180.81;5007770;28;20033;-84
2023/06/25 00:57:22;;;;;;;7.32;5.75;;;;;;;26.25;59.26;101172.81;5007626;28;19968;-83
2023/06/25 00:59:48;;;;;;;7.63;5.97;;;;;;;26.23;59.47;101171.03;5004538;28;20018;-83
2023/06/25 01:02:21;;;;;;;7.05;5.85;;;;;;;26.23;59.44;101176.41;5018326;28;20065;-84
2023/06/25 01:04:57;;;;;;;8.57;6.00;;;;;;;26.18;59.37;101174.63;5000814;28;20018;-83
2023/06/25 01:07:24;;;;;;;6.72;6.03;;;;;;;26.21;59.68;101176.41;4992989;28;20029;-84
2023/06/25 01:09:50;;;;;;;8.73;5.80;;;;;;;26.11;59.40;101159.47;5002209;28;20312;-84
2023/06/25 01:12:16;;;;;;;;;;;;;;;26.23;59.38;101168.38;4997365;28;20113;-83
2023/06/25 01:14:42;;;;;;;6.35;5.72;;;;;;;26.14;59.52;101163.91;4994083;28;20422;-84
2023/06/25 01:17:07;;;;;;;;;;;;;;;26.19;59.37;101171.03;4993712;28;20478;-83
2023/06/25 01:19:33;;;;;;;6.80;6.10;;;;;;;26.13;59.56;101165.72;5010891;28;19963;-84
2023/06/25 01:22:01;;;;;;;7.72;5.93;;;;;;;26.13;59.52;101162.16;4978141;28;20582;-84
2023/06/25 01:24:28;;;;;;;6.50;5.40;;;;;;;26.12;59.41;101161.25;4992937;28;20022;-83
2023/06/25 01:26:59;;;;;;;6.57;5.72;;;;;;;26.09;59.17;101153.22;5017189;28;20026;-84
2023/06/25 01:29:26;;;;;;;6.35;5.45;;;;;;;26.12;59.29;101160.34;5025354;28;20022;-84
2023/06/25 01:31:52;;;;;;;6.60;5.70;;;;;;;26.08;59.35;101154.16;5006282;28;20077;-84
2023/06/25 01:34:21;;;;;;;7.93;5.55;;;;;;;26.10;59.36;101159.47;5002175;28;20133;-84
2023/06/25 01:36:51;;;;;;;7.65;6.03;;;;;;;26.09;59.27;101157.69;5008931;28;20023;-84
2023/06/25 01:39:17;;;;;;;7.45;5.50;;;;;;;26.06;59.21;101142.56;5000423;28;20069;-84
2023/06/25 01:41:46;;;;;;;6.70;5.70;;;;;;;26.04;58.98;101135.44;5012086;28;20029;-84
2023/06/25 01:44:39;;;;;;;7.30;5.55;;;;;;;26.09;59.20;101150.56;5009587;28;20031;-84
2023/06/25 01:47:04;;;;;;;11.02;6.15;;;;;;;25.98;59.12;101139.00;4991532;28;20093;-83
2023/06/25 01:49:30;;;;;;;;;;;;;;;26.10;59.12;101151.44;5003183;28;20636;-84
2023/06/25 01:51:55;;;;;;;6.10;5.28;;;;;;;26.02;59.31;101146.13;5012932;28;19913;-84
2023/06/25 01:54:21;;;;;;;7.18;5.80;;;;;;;25.96;59.36;101135.44;5001190;28;20022;-84
2023/06/25 01:56:47;;;;;;;7.05;6.03;;;;;;;25.90;59.28;101130.13;5011190;28;20053;-84
2023/06/25 01:59:13;;;;;;;7.18;5.53;;;;;;;25.97;59.57;101137.22;5010461;28;20534;-84
2023/06/25 02:01:39;;;;;;;7.45;6.03;;;;;;;26.02;59.25;101156.84;4983513;28;20054;-84
2023/06/25 02:04:04;;;;;;;7.18;5.70;;;;;;;26.01;59.54;101157.72;5007859;28;20080;-83
2023/06/25 02:06:30;;;;;;;;;;;;;;;26.04;59.33;101156.84;5006593;28;20139;-84
2023/06/25 02:08:55;;;;;;;7.35;5.57;;;;;;;26.00;59.32;101156.84;4995540;28;19920;-84
2023/06/25 02:11:21;;;;;;;;;;;;;;;26.03;59.00;101158.59;4995917;28;20169;-84
2023/06/25 02:13:47;;;;;;;8.07;5.80;;;;;;;25.92;59.49;101153.28;5004882;28;20387;-84
2023/06/25 02:16:13;;;;;;;6.40;5.60;;;;;;;25.92;59.29;101155.97;4992953;28;20027;-84
2023/06/25 02:18:40;;;;;;;7.05;5.90;;;;;;;25.89;59.20;101153.31;5007034;28;20069;-84
2023/06/25 02:21:05;;;;;;;7.28;6.10;;;;;;;25.94;59.31;101155.97;5010887;28;20120;-85
2023/06/25 02:23:31;;;;;;;;;;;;;;;26.02;58.92;101161.31;4990734;28;20109;-85
2023/06/25 02:25:56;;;;;;;6.20;5.57;;;;;;;25.87;59.39;101160.41;5020661;28;19913;-85
2023/06/25 02:28:22;;;;;;;;;;;;;;;25.97;58.98;101163.97;4998803;28;20049;-85
2023/06/25 02:30:47;;;;;;;6.30;5.45;;;;;;;25.90;59.11;101175.59;5018121;28;19917;-84
2023/06/25 02:33:13;;;;;;;;;;;;;;;25.96;58.92;101171.13;5009469;28;20164;-84
2023/06/25 02:35:39;;;;;;;5.78;5.10;;;;;;;25.86;58.95;101168.44;5008791;28;20467;-86
2023/06/25 02:38:05;;;;;;;7.20;5.45;;;;;;;25.85;59.26;101170.25;5006674;28;20388;-86
2023/06/25 02:40:30;;;;;;;;;;;;;;;25.92;58.76;101180.06;5004172;28;20030;-84
2023/06/25 02:42:56;;;;;;;6.40;5.75;;;;;;;25.87;58.80;101172.91;5003259;28;19914;-85
2023/06/25 02:45:21;;;;;;;;;;;;;;;25.91;58.60;101172.94;5001926;28;20053;-84
2023/06/25 02:47:47;;;;;;;6.38;5.72;;;;;;;25.88;58.65;101180.91;5003417;28;19913;-84
2023/06/25 02:50:13;;;;;;;;;;;;;;;25.89;58.82;101182.75;5010520;28;20026;-85
2023/06/25 02:52:38;;;;;;;6.75;5.65;;;;;;;25.85;58.92;101178.25;5010598;28;20294;-86
2023/06/25 02:55:04;;;;;;;6.30;5.35;;;;;;;25.80;58.80;101172.94;5007024;28;20022;-81
2023/06/25 02:57:30;;;;;;;7.65;5.55;;;;;;;25.85;59.06;101188.97;5011805;28;20485;-86
2023/06/25 02:59:56;;;;;;;;;;;;;;;25.85;58.70;101180.94;4996868;28;20029;-85
2023/06/25 03:02:22;;;;;;;6.95;5.63;;;;;;;25.81;59.16;101181.84;5013847;28;20008;-87
2023/06/25 03:04:47;;;;;;;;;;;;;;;25.89;58.86;101181.88;5000218;28;20030;-88
2023/06/25 03:07:13;;;;;;;6.40;5.07;;;;;;;25.76;58.89;101178.25;5010561;28;19914;-88
2023/06/25 03:09:38;;;;;;;6.25;5.50;;;;;;;25.78;58.85;101180.06;4989569;28;20417;-88
2023/06/25 03:12:04;;;;;;;;;;;;;;;25.83;58.80;101190.75;4975067;28;20038;-87
2023/06/25 03:14:30;;;;;;;6.10;5.30;;;;;;;25.72;58.99;101165.81;4997934;28;19956;-87
2023/06/25 03:16:55;;;;;;;;;;;;;;;25.81;58.88;101176.47;4979906;28;20034;-87
2023/06/25 03:19:21;;;;;;;7.45;5.72;;;;;;;25.78;58.80;101173.81;4992356;28;19928;-86
2023/06/25 03:21:47;;;;;;;7.70;5.88;;;;;;;25.66;58.83;101158.69;4998797;28;20523;-86
2023/06/25 03:24:13;;;;;;;6.22;5.55;;;;;;;25.74;58.61;101164.03;4997007;28;20101;-86
2023/06/25 03:26:38;;;;;;;;;;;;;;;25.77;58.64;101169.34;5005598;28;20098;-87
2023/06/25 03:29:04;;;;;;;7.15;5.97;;;;;;;25.73;58.72;101172.94;5015966;28;19922;-86
2023/06/25 03:31:29;;;;;;;;;;;;;;;25.78;58.62;101171.13;4993484;28;20156;-87
2023/06/25 03:33:55;;;;;;;7.05;5.50;;;;;;;25.72;58.68;101168.50;5012233;28;19980;-87
2023/06/25 03:36:21;;;;;;;;;;;;;;;25.78;58.64;101173.81;4994439;28;20511;-86
2023/06/25 03:38:46;;;;;;;5.90;5.15;;;;;;;25.74;58.52;101172.06;5013274;28;19918;-83
2023/06/25 03:41:11;;;;;;;;;;;;;;;25.77;58.94;101164.00;5012700;28;20029;-84
2023/06/25 03:43:37;;;;;;;6.63;5.25;;;;;;;25.67;58.53;101156.91;5006520;28;19925;-85
2023/06/25 03:46:02;;;;;;;;;;;;;;;25.72;58.71;101166.69;5003445;28;20484;-85
2023/06/25 03:48:28;;;;;;;6.93;5.43;;;;;;;25.70;58.89;101156.91;5007297;28;20434;-85
2023/06/25 03:50:53;;;;;;;;;;;;;;;25.70;58.80;101147.09;5006250;28;20045;-85
2023/06/25 03:53:20;;;;;;;8.00;5.65;;;;;;;25.54;58.72;101126.59;5002776;28;19929;-84
2023/06/25 03:55:46;;;;;;;6.97;5.85;;;;;;;25.60;58.70;101138.19;5007707;28;20023;-84
2023/06/25 03:58:11;;;;;;;;;;;;;;;25.71;58.72;101145.28;4992570;28;20034;-82
2023/06/25 04:00:37;;;;;;;5.78;5.18;;;;;;;25.66;58.94;101150.66;5007915;28;19968;-82
2023/06/25 04:03:02;;;;;;;;;;;;;;;25.68;58.57;101150.66;5005872;28;20030;-84
2023/06/25 04:05:28;;;;;;;7.10;5.30;;;;;;;25.55;58.70;101136.44;5009435;28;19917;-84
2023/06/25 04:07:53;;;;;;;;;;;;;;;25.68;58.87;101146.19;5004787;28;20058;-84
2023/06/25 04:10:19;;;;;;;6.88;5.30;;;;;;;25.63;58.87;101144.41;5007459;28;20387;-84
2023/06/25 04:12:45;;;;;;;;;;;;;;;25.64;58.20;101149.78;5009740;28;20113;-84
2023/06/25 04:15:11;;;;;;;6.40;5.38;;;;;;;25.59;58.67;101136.41;5017473;28;19943;-83
2023/06/25 04:17:39;;;;;;;7.80;5.22;;;;;;;25.54;58.87;101119.47;5010769;28;20069;-83
2023/06/25 04:20:06;;;;;;;7.07;5.70;;;;;;;25.62;58.70;101132.84;5011078;28;20061;-82
2023/06/25 04:22:31;;;;;;;7.65;5.43;;;;;;;25.59;58.57;101136.41;5010040;28;20135;-87
2023/06/25 04:24:57;;;;;;;;;;;;;;;25.62;58.67;101140.84;5013843;28;20026;-87
2023/06/25 04:27:22;;;;;;;7.25;5.80;;;;;;;25.56;58.78;101136.41;5013712;28;19925;-82
2023/06/25 04:29:48;;;;;;;;;;;;;;;25.62;58.80;101150.69;5011329;28;20026;-87
2023/06/25 04:32:13;;;;;;;6.45;5.40;;;;;;;25.59;58.47;101139.09;5003542;28;19917;-86
2023/06/25 04:34:39;;;;;;;;;;;;;;;25.62;58.70;101145.31;5010573;28;20446;-86
2023/06/25 04:37:08;;;;;;;6.63;5.55;;;;;;;25.54;58.95;101142.66;4995918;28;20008;-86
2023/06/25 04:39:33;;;;;;;6.25;5.30;;;;;;;25.57;58.65;101140.88;5012791;28;20121;-86
2023/06/25 04:41:59;;;;;;;;;;;;;;;25.58;58.64;101147.09;5010847;28;20113;-87
2023/06/25 04:44:25;;;;;;;6.78;5.85;;;;;;;25.54;58.90;101139.97;5017532;28;19921;-85
2023/06/25 04:46:50;;;;;;;7.35;5.93;;;;;;;25.51;58.51;101135.53;5008004;28;20034;-85
2023/06/25 04:49:16;;;;;;;;;;;;;;;25.60;58.82;101148.00;5013237;28;20026;-85
2023/06/25 04:51:45;;;;;;;6.07;5.40;;;;;;;25.52;58.27;101139.09;5008877;28;19924;-84
2023/06/25 04:54:11;;;;;;;6.25;5.43;;;;;;;25.55;58.80;101148.00;5016636;28;20040;-85
2023/06/25 04:56:36;;;;;;;;;;;;;;;25.59;58.67;101146.22;5005468;28;20026;-85
2023/06/25 04:59:02;;;;;;;6.57;5.65;;;;;;;25.55;58.52;101142.66;5009708;28;19913;-84
2023/06/25 05:01:27;;;;;;;;;;;;;;;25.56;59.17;101138.19;5022769;28;20832;-84
2023/06/25 05:03:53;;;;;;;7.68;5.55;;;;;;;25.38;59.15;101110.59;5012401;28;19925;-85
2023/06/25 05:06:18;;;;;;;;;;;;;;;25.55;59.10;101133.75;5008254;28;20041;-83
2023/06/25 05:08:44;;;;;;;6.10;5.50;;;;;;;25.50;58.54;101131.06;5009030;28;19921;-82
2023/06/25 05:11:10;;;;;;;;;;;;;;;25.54;58.92;101134.63;5018000;28;20088;-83
2023/06/25 05:13:36;;;;;;;6.93;5.78;;;;;;;25.51;58.71;101135.53;5017246;28;19975;-81
2023/06/25 05:18:45;;;;;;;5.55;5.03;;;;;;;25.49;60.00;101134.66;5016884;28;19923;-81
2023/06/25 05:21:11;;;;;;;;;;;;;;;25.52;59.59;101131.06;5012260;28;20120;-82
2023/06/25 05:23:59;;;;;;;6.88;5.50;;;;;;;25.50;59.41;101143.56;5011606;28;19917;-79
2023/06/25 05:26:25;;;;;;;5.57;4.90;;;;;;;25.47;59.31;101136.44;4993043;28;20037;-80
2023/06/25 05:28:50;;;;;;;;;;;;;;;25.52;59.80;101137.31;5006942;28;20088;-81
2023/06/25 05:31:16;;;;;;;6.78;5.35;;;;;;;25.48;59.35;101131.97;5009667;28;19961;-81
2023/06/25 05:33:41;;;;;;;7.53;5.32;;;;;;;25.50;59.30;101133.75;5011845;28;20031;-81
2023/06/25 05:36:07;;;;;;;;;;;;;;;25.55;58.66;101126.63;5008220;28;20412;-82
2023/06/25 05:38:33;;;;;;;5.45;4.90;;;;;;;25.52;59.36;101125.72;5007773;28;19918;-82
2023/06/25 05:40:58;;;;;;;;;;;;;;;25.56;58.63;101120.34;5008303;28;20106;-83
2023/06/25 05:43:24;;;;;;;6.50;5.15;;;;;;;25.55;59.56;101128.41;5004130;28;19921;-81
2023/06/25 05:45:49;;;;;;;;;;;;;;;25.54;59.32;101126.59;5001225;28;20476;-81
2023/06/25 05:48:14;;;;;;;6.93;5.38;;;;;;;25.52;59.13;101123.94;5009498;28;19917;-82
2023/06/25 05:50:40;;;;;;;;;;;;;;;25.55;59.23;101129.28;5010499;28;20061;-83
2023/06/25 05:53:05;;;;;;;6.15;5.38;;;;;;;25.55;59.23;101120.38;5002921;28;20020;-83
2023/06/25 05:55:31;;;;;;;;;;;;;;;25.55;58.69;101113.25;5011965;28;20491;-83
2023/06/25 05:57:56;;;;;;;5.75;4.95;;;;;;;25.48;58.70;101107.91;5011858;28;19975;-83
2023/06/25 06:00:23;;;;;;;;;;;;;;;25.56;59.03;101115.00;5007104;28;20030;-84
2023/06/25 06:02:48;;;;;;;6.22;5.53;;;;;;;25.56;58.60;101116.81;5013668;28;20375;-83
2023/06/25 06:05:14;;;;;;;;;;;;;;;25.59;59.35;101114.13;5009405;28;20030;-82
2023/06/25 06:07:39;;;;;;;5.93;5.32;;;;;;;25.58;59.44;101113.22;5002383;28;19929;-82
2023/06/25 06:10:05;;;;;;;;;;;;;;;25.56;58.93;101117.69;5016041;28;20040;-81
2023/06/25 06:12:32;;;;;;;6.85;5.15;;;;;;;25.53;59.55;101112.34;5012683;28;20033;-81
2023/06/25 06:14:57;;;;;;;6.03;5.43;;;;;;;25.51;60.19;101106.13;5006926;28;20022;-80
2023/06/25 06:17:23;;;;;;;;;;;;;;;25.57;59.62;101110.56;5009747;28;20021;-82
2023/06/25 06:19:49;;;;;;;5.97;5.03;;;;;;;25.56;59.98;101112.34;5005755;28;19933;-81
2023/06/25 06:22:15;;;;;;;;;;;;;;;25.42;60.06;101075.81;4963738;28;20554;-82
2023/06/25 06:24:41;;;;;;;6.38;4.95;;;;;;;25.58;59.99;101101.66;5013084;28;20556;-81
2023/06/25 06:27:07;;;;;;;;;;;;;;;25.58;60.21;101101.66;5005716;28;20039;-81
2023/06/25 06:29:33;;;;;;;5.88;5.28;;;;;;;25.59;58.77;101103.44;5008417;28;19925;-82
2023/06/25 06:31:59;;;;;;;6.35;5.50;;;;;;;25.55;60.13;101104.34;4992713;28;20050;-81
2023/06/25 06:34:25;;;;;;;;;;;;;;;25.62;59.06;101094.50;5011108;28;20032;-81
2023/06/25 06:36:51;;;;;;;6.97;5.15;;;;;;;25.58;59.23;101091.81;4998005;28;19917;-81
2023/06/25 06:39:17;;;;;;;;;;;;;;;25.65;58.79;101091.81;5007421;28;20498;-81
2023/06/25 06:41:42;;;;;;;5.57;5.07;;;;;;;25.63;59.32;101094.47;5007186;28;19921;-82
2023/06/25 06:44:17;;;;;;;;;;;;;;;25.64;59.12;101092.72;4997097;28;20540;-81
2023/06/25 06:46:43;;;;;;;6.50;5.20;;;;;;;25.63;58.60;101086.47;5005638;28;19921;-81
2023/06/25 06:49:10;;;;;;;6.45;5.30;;;;;;;25.58;59.28;101074.91;5008319;28;20121;-81
2023/06/25 06:51:36;;;;;;;6.30;5.35;;;;;;;25.66;59.35;101088.25;4996178;28;20087;-81
2023/06/25 06:54:03;;;;;;;5.90;5.30;;;;;;;25.67;59.27;101084.66;5006782;28;20113;-83
2023/06/25 06:56:29;;;;;;;6.32;5.53;;;;;;;25.72;59.13;101085.56;5015283;28;20021;-82
2023/06/25 06:58:54;;;;;;;;;;;;;;;25.72;58.97;101082.91;5005988;28;20028;-81
2023/06/25 07:01:20;;;;;;;5.45;4.93;;;;;;;25.66;58.62;101077.56;5007388;28;20311;-81
2023/06/25 07:03:45;;;;;;;;;;;;;;;25.73;59.00;101076.63;5009104;28;20053;-82
2023/06/25 07:06:11;;;;;;;6.25;5.65;;;;;;;25.67;59.05;101073.97;5002344;28;19926;-79
2023/06/25 07:08:36;;;;;;;;;;;;;;;25.73;58.73;101074.84;5006117;28;20482;-80
2023/06/25 07:11:02;;;;;;;6.53;5.63;;;;;;;25.68;58.82;101073.97;5002235;28;20422;-80
2023/06/25 07:13:29;;;;;;;;;;;;;;;25.69;58.83;101075.75;5013887;28;20124;-82
2023/06/25 07:15:54;;;;;;;6.10;5.10;;;;;;;25.72;59.16;101067.72;4997749;28;20284;-81
2023/06/25 07:18:20;;;;;;;6.13;5.53;;;;;;;25.71;58.84;101067.72;5012241;28;20108;-82
2023/06/25 07:20:45;;;;;;;;;;;;;;;25.74;59.30;101073.06;5008288;28;20108;-83
2023/06/25 07:23:11;;;;;;;6.20;5.60;;;;;;;25.72;59.39;101064.16;5009200;28;19926;-82
2023/06/25 07:25:36;;;;;;;;;;;;;;;25.76;58.80;101071.25;5003788;28;20089;-83
2023/06/25 07:28:02;;;;;;;6.65;5.82;;;;;;;25.69;59.03;101062.38;5008844;28;20004;-83
2023/06/25 07:30:27;;;;;;;;;;;;;;;25.77;60.02;101071.25;5013526;28;20031;-86
2023/06/25 07:32:53;;;;;;;12.57;6.07;;;;;;;25.82;59.68;101071.22;5005945;28;19921;-83
2023/06/25 07:35:18;;;;;;;;;;;;;;;25.68;60.62;101070.41;5009393;28;20061;-81
2023/06/25 07:37:44;;;;;;;31.33;7.80;;;;;;;25.74;60.09;101068.59;5008842;28;20371;-85
2023/06/25 07:40:09;;;;;;;;;;;;;;;25.91;59.45;101062.34;4999553;28;20025;-85
2023/06/25 07:42:35;;;;;;;28.15;9.43;;;;;;;25.94;59.36;101065.88;4999637;28;19917;-83
2023/06/25 07:45:00;;;;;;;;;;;;;;;25.95;59.60;101066.75;5009604;28;20484;-83
2023/06/25 07:47:26;;;;;;;22.80;8.18;;;;;;;25.96;60.44;101065.88;4999125;28;20001;-80
2023/06/25 07:49:52;;;;;;;;;;;;;;;26.04;58.91;101068.53;4998744;28;20488;-80
2023/06/25 07:52:17;;;;;;;30.30;8.60;;;;;;;26.10;58.84;101061.34;4992541;28;20318;-79
2023/06/25 07:54:43;;;;;;;25.00;8.00;;;;;;;26.12;58.47;101063.97;5015415;28;20018;-79
2023/06/25 07:57:09;;;;;;;;;;;;;;;26.20;57.20;101063.06;5013620;28;20033;-80
2023/06/25 07:59:34;;;;;;;19.02;7.25;;;;;;;26.13;56.88;101060.44;5010115;28;20008;-79
2023/06/25 08:02:00;;;;;;;;;;;;;;;26.20;56.50;101064.84;4998682;28;20049;-79
2023/06/25 08:04:25;;;;;;;15.27;6.60;;;;;;;26.20;56.12;101064.84;5010892;28;19928;-79
2023/06/25 08:06:51;;;;;;;;;;;;;;;26.26;56.02;101061.25;5012670;28;20444;-79
2023/06/25 08:09:16;;;;;;;15.38;6.78;;;;;;;26.29;55.75;101061.22;5010762;28;19921;-80
2023/06/25 08:11:42;;;;;;;;;;;;;;;26.32;55.39;101066.56;5009976;28;20411;-79
2023/06/25 08:14:11;;;;;;;15.05;6.80;;;;;;;26.31;55.32;101063.00;5017566;28;20000;-80
2023/06/25 08:16:36;;;;;;;11.60;6.00;;;;;;;26.37;55.30;101060.28;5007062;28;20049;-80
2023/06/25 08:19:02;;;;;;;;;;;;;;;26.34;55.26;101062.09;5008827;28;20038;-80
2023/06/25 08:21:28;;;;;;;10.52;6.22;;;;;;;26.36;55.15;101065.66;4993990;28;19921;-80
2023/06/25 08:23:53;;;;;;;;;;;;;;;26.40;54.80;101056.69;5009853;28;20061;-81
2023/06/25 08:26:18;;;;;;;8.38;6.30;;;;;;;26.42;54.65;101049.53;5002355;28;19917;-79
2023/06/25 08:28:44;;;;;;;11.43;6.00;;;;;;;26.38;54.37;101054.03;5008867;28;20431;-78
2023/06/25 08:31:10;;;;;;;;;;;;;;;26.41;54.31;101050.44;5003944;28;20125;-78
2023/06/25 08:33:36;;;;;;;10.13;5.95;;;;;;;26.44;54.50;101057.53;5009725;28;20115;-80
2023/06/25 08:36:02;;;;;;;10.88;6.32;;;;;;;26.44;54.13;101044.16;5007228;28;20113;-79
2023/06/25 08:38:30;;;;;;;;;;;;;;;26.48;53.94;101054.88;4998962;28;20129;-79
2023/06/25 08:40:56;;;;;;;9.75;6.10;;;;;;;26.50;53.81;101044.13;5012751;28;20449;-79
2023/06/25 08:43:21;;;;;;;;;;;;;;;26.55;53.80;101051.22;5016044;28;20034;-78
2023/06/25 08:45:47;;;;;;;7.80;5.00;;;;;;;26.45;53.68;101040.59;5013786;28;19969;-77
2023/06/25 08:48:13;;;;;;;9.43;5.53;;;;;;;26.52;53.56;101043.22;5010873;28;20476;-79
2023/06/25 08:50:41;;;;;;;8.18;5.60;;;;;;;26.58;53.32;101036.94;5009712;28;20034;-79
2023/06/25 08:53:07;;;;;;;8.85;5.47;;;;;;;26.56;53.38;101038.72;4991791;28;20411;-78
2023/06/25 08:55:34;;;;;;;9.18;5.32;;;;;;;26.47;53.46;101015.56;5012443;28;20021;-80
2023/06/25 08:58:00;;;;;;;7.47;5.32;;;;;;;26.59;53.55;101038.75;5010825;28;20038;-80
2023/06/25 09:00:25;;;;;;;;;;;;;;;26.62;53.29;101027.97;5016513;28;20051;-79
2023/06/25 09:02:52;;;;;;;8.00;5.30;;;;;;;26.64;53.40;101031.53;5011878;28;20374;-78
2023/06/25 09:05:26;;;;;;;5.85;5.05;;;;;;;26.57;53.07;101017.31;5006150;28;20044;-81
2023/06/25 09:07:52;;;;;;;6.35;5.10;;;;;;;26.63;53.09;101026.19;5015059;28;20025;-80
2023/06/25 09:10:21;;;;;;;;;;;;;;;26.71;52.84;101029.69;5010021;28;20117;-77
2023/06/25 09:12:49;;;;;;;10.43;5.07;;;;;;;26.69;53.25;101028.81;5008054;28;20471;-79
2023/06/25 09:15:22;;;;;;;6.22;4.75;;;;;;;26.54;53.17;100993.22;5015814;28;20061;-80
2023/06/25 09:17:48;;;;;;;6.05;5.03;;;;;;;26.74;52.96;101016.28;5014071;28;20116;-81
2023/06/25 09:20:14;;;;;;;7.03;5.13;;;;;;;26.71;52.99;101013.63;5007199;28;20022;-81
2023/06/25 09:22:50;;;;;;;;;;;;;;;26.77;52.61;101025.16;5006087;28;20067;-79
2023/06/25 09:25:15;;;;;;;6.75;4.60;;;;;;;26.78;52.71;101018.94;5007237;28;20288;-80
2023/06/25 09:27:41;;;;;;;;;;;;;;;26.80;52.79;101014.44;5003994;28;20033;-78
2023/06/25 09:30:13;;;;;;;6.20;4.72;;;;;;;26.62;52.86;100982.44;5011028;28;19976;-78
2023/06/25 09:33:11;;;;;;;7.80;5.38;;;;;;;26.80;52.75;101011.75;4993638;28;20103;-80
2023/06/25 09:35:39;;;;;;;6.18;4.63;;;;;;;26.83;52.45;101009.97;4998226;28;20042;-80
2023/06/25 09:38:04;;;;;;;;;;;;;;;26.85;52.37;101008.16;5013017;28;20026;-82
2023/06/25 09:40:30;;;;;;;6.20;4.80;;;;;;;26.62;52.69;100971.72;5026518;28;19935;-80
2023/06/25 09:42:58;;;;;;;4.93;4.43;;;;;;;26.88;52.21;101008.09;4988496;28;20417;-78
2023/06/25 09:45:24;;;;;;;5.20;4.63;;;;;;;26.89;52.11;101007.22;5011403;28;20120;-79
2023/06/25 09:47:51;;;;;;;5.20;4.53;;;;;;;26.84;52.14;101001.00;5014263;28;20095;-79
2023/06/25 09:50:18;;;;;;;5.40;4.40;;;;;;;26.90;52.27;101009.91;5009111;28;20030;-78
2023/06/25 09:52:49;;;;;;;6.53;4.65;;;;;;;26.89;52.06;101001.88;5010898;28;20049;-79
2023/06/25 09:55:14;;;;;;;5.70;4.80;;;;;;;26.92;52.31;101005.38;5012043;28;20065;-79
2023/06/25 09:57:40;;;;;;;;;;;;;;;26.97;51.99;101000.88;5006664;28;20050;-82
2023/06/25 10:00:08;;;;;;;5.18;4.40;;;;;;;26.96;52.11;100993.72;5015558;28;19917;-81
2023/06/25 10:02:34;;;;;;;4.78;4.25;;;;;;;26.98;51.87;100997.28;5019842;28;20026;-80
2023/06/25 10:05:00;;;;;;;5.57;4.63;;;;;;;26.99;51.88;101000.88;5014258;28;20561;-80
2023/06/25 10:07:26;;;;;;;7.85;5.15;;;;;;;26.94;51.91;100987.50;5014078;28;20037;-80
2023/06/25 10:09:55;;;;;;;6.50;4.38;;;;;;;26.99;51.88;100990.16;5005346;28;20030;-80
2023/06/25 10:12:21;;;;;;;6.68;5.00;;;;;;;26.99;51.85;100982.13;4992748;28;20573;-82
2023/06/25 10:14:47;;;;;;;6.43;4.38;;;;;;;27.04;51.56;100996.34;5013472;28;20511;-80
2023/06/25 10:17:14;;;;;;;5.95;4.35;;;;;;;27.07;51.93;100993.63;5008970;28;20109;-79
2023/06/25 10:20:01;;;;;;;5.60;4.60;;;;;;;27.08;51.83;100987.38;5007180;28;20031;-80
2023/06/25 10:22:28;;;;;;;5.05;4.50;;;;;;;27.07;51.88;100982.88;5002727;28;20022;-81
2023/06/25 10:24:55;;;;;;;6.22;4.90;;;;;;;27.05;51.46;100965.97;4992388;28;20030;-80
2023/06/25 10:27:21;;;;;;;5.85;4.78;;;;;;;27.13;51.80;100985.50;4988738;28;20037;-81
2023/06/25 10:29:47;;;;;;;6.35;4.28;;;;;;;27.11;51.71;100973.91;5011367;28;20036;-82
2023/06/25 10:32:13;;;;;;;5.07;4.22;;;;;;;27.14;51.26;100970.34;4993012;28;20046;-80
2023/06/25 10:34:39;;;;;;;;;;;;;;;27.20;51.50;100979.19;5012606;28;20018;-81
2023/06/25 10:37:05;;;;;;;5.63;4.43;;;;;;;27.06;51.23;100948.97;5008750;28;19917;-79
2023/06/25 10:39:41;;;;;;;5.28;4.22;;;;;;;27.24;51.38;100974.69;5006355;28;20084;-81
2023/06/25 10:42:07;;;;;;;6.68;4.30;;;;;;;27.15;51.19;100959.56;5008096;28;20030;-81
2023/06/25 10:44:33;;;;;;;5.97;4.75;;;;;;;27.26;51.15;100966.63;4997377;28;20045;-81
2023/06/25 10:47:07;;;;;;;5.85;4.18;;;;;;;27.28;51.32;100964.81;4992680;28;20026;-80
2023/06/25 10:49:34;;;;;;;5.07;4.10;;;;;;;27.17;51.12;100946.16;5004869;28;20057;-81
2023/06/25 10:52:02;;;;;;;4.47;4.07;;;;;;;27.32;50.99;100964.78;5014559;28;20029;-80
2023/06/25 10:54:27;;;;;;;6.95;4.68;;;;;;;27.25;51.09;100955.03;5002849;28;20030;-79
2023/06/25 10:57:10;;;;;;;5.00;4.40;;;;;;;27.29;50.93;100959.44;5002915;28;20093;-79
2023/06/25 10:59:36;;;;;;;5.53;4.40;;;;;;;27.35;50.92;100955.81;5011579;28;20081;-80
2023/06/25 11:02:21;;;;;;;5.65;4.40;;;;;;;27.20;51.22;100936.28;5013191;28;20037;-81
2023/06/25 11:04:51;;;;;;;5.93;4.70;;;;;;;27.36;50.65;100962.94;5008870;28;20034;-80
2023/06/25 11:07:21;;;;;;;5.78;4.18;;;;;;;27.39;50.66;100955.75;5004197;28;20045;-80
2023/06/25 11:09:56;;;;;;;5.55;4.57;;;;;;;27.28;50.52;100930.84;5005700;28;20029;-80
2023/06/25 11:12:22;;;;;;;5.70;4.13;;;;;;;27.34;50.70;100940.63;4995548;28;20042;-81
2023/06/25 11:14:47;;;;;;;5.93;4.22;;;;;;;27.44;50.74;100952.13;5008480;28;20037;-81
2023/06/25 11:17:17;;;;;;;5.78;4.32;;;;;;;27.43;50.53;100951.22;5003671;28;20027;-81
2023/06/25 11:19:43;;;;;;;4.30;3.90;;;;;;;27.43;50.54;100945.84;5000580;28;20026;-80
2023/06/25 11:22:09;;;;;;;5.82;4.32;;;;;;;27.42;50.59;100936.06;4991101;28;20531;-82
2023/06/25 11:24:36;;;;;;;4.68;4.18;;;;;;;27.47;50.38;100944.91;5006407;28;20095;-80
2023/06/25 11:27:02;;;;;;;4.90;4.40;;;;;;;27.46;50.56;100939.59;5011450;28;20033;-80
2023/06/25 11:29:39;;;;;;;5.57;3.90;;;;;;;27.52;50.41;100950.25;5007947;28;20503;-81
2023/06/25 11:32:08;;;;;;;5.13;4.25;;;;;;;27.54;50.37;100941.25;5004571;28;20046;-81
2023/06/25 11:34:34;;;;;;;5.28;4.00;;;;;;;27.53;50.33;100941.28;5009102;28;20032;-82
2023/06/25 11:37:18;;;;;;;4.72;4.28;;;;;;;27.53;50.52;100935.91;5009433;28;20025;-81
2023/06/25 11:39:46;;;;;;;4.70;4.07;;;;;;;27.53;50.61;100936.78;5007736;28;20029;-80
2023/06/25 11:42:17;;;;;;;4.95;4.10;;;;;;;27.53;50.47;100930.53;5003284;28;20113;-80
2023/06/25 11:44:43;;;;;;;4.88;4.10;;;;;;;27.54;50.47;100927.84;5001968;28;20117;-81